createdAt,value
2018-10-03T00:02:13.958Z,4.87
2018-10-03T00:04:42.306Z,5.30
2018-10-03T00:07:10.463Z,5.20
2018-10-03T00:09:38.771Z,5.13
2018-10-03T00:12:06.898Z,5.60
2018-10-03T00:14:35.053Z,6.07
2018-10-03T00:17:03.168Z,5.53
2018-10-03T00:19:31.300Z,6.03
2018-10-03T00:21:59.404Z,5.70
2018-10-03T00:24:27.594Z,5.23
2018-10-03T00:26:55.718Z,5.93
2018-10-03T00:29:23.931Z,4.73
2018-10-03T00:31:52.119Z,5.83
2018-10-03T00:34:20.248Z,5.57
2018-10-03T00:36:48.339Z,5.87
2018-10-03T00:39:16.430Z,4.90
2018-10-03T00:41:44.563Z,5.60
2018-10-03T00:44:12.660Z,5.33
2018-10-03T00:46:40.831Z,4.93
2018-10-03T00:49:09.392Z,6.23
2018-10-03T00:51:37.983Z,4.80
2018-10-03T00:54:06.168Z,5.23
2018-10-03T00:56:34.339Z,5.37
2018-10-03T00:59:02.535Z,5.00
2018-10-03T01:01:30.687Z,5.00
2018-10-03T01:03:58.955Z,4.43
2018-10-03T01:06:27.335Z,4.70
2018-10-03T01:08:55.515Z,6.17
2018-10-03T01:11:23.696Z,5.53
2018-10-03T01:13:51.887Z,5.17
2018-10-03T01:16:20.431Z,4.67
2018-10-03T01:18:48.968Z,4.97
2018-10-03T01:21:17.058Z,5.17
2018-10-03T01:23:45.167Z,5.80
2018-10-03T01:26:13.294Z,5.07
2018-10-03T01:28:41.406Z,6.03
2018-10-03T01:31:10.333Z,5.30
2018-10-03T01:33:38.439Z,5.30
2018-10-03T01:36:06.566Z,4.33
2018-10-03T01:38:34.663Z,5.27
2018-10-03T01:41:02.759Z,4.93
2018-10-03T01:43:30.855Z,5.93
2018-10-03T01:45:58.970Z,5.63
2018-10-03T01:48:27.084Z,5.90
2018-10-03T01:50:55.191Z,5.67
2018-10-03T01:53:23.295Z,4.63
2018-10-03T01:55:51.401Z,5.50
2018-10-03T01:58:19.534Z,4.53
2018-10-03T02:00:47.628Z,5.43
2018-10-03T02:03:15.736Z,4.43
2018-10-03T02:05:44.779Z,4.77
2018-10-03T02:08:12.919Z,5.03
2018-10-03T02:10:41.028Z,4.53
2018-10-03T02:13:09.115Z,4.13
2018-10-03T02:15:37.220Z,4.33
2018-10-03T02:18:05.342Z,4.50
2018-10-03T02:20:33.436Z,4.77
2018-10-03T02:23:01.528Z,4.03
2018-10-03T02:25:29.770Z,4.60
2018-10-03T02:27:57.872Z,4.60
2018-10-03T02:30:26.035Z,4.53
2018-10-03T02:32:54.196Z,3.83
2018-10-03T02:35:22.283Z,4.50
2018-10-03T02:37:50.453Z,4.53
2018-10-03T02:40:18.607Z,4.57
2018-10-03T02:42:46.687Z,4.87
2018-10-03T02:45:14.898Z,4.13
2018-10-03T02:47:43.044Z,4.50
2018-10-03T02:50:11.114Z,4.47
2018-10-03T02:52:39.221Z,4.63
2018-10-03T02:55:07.340Z,4.23
2018-10-03T02:57:35.427Z,4.83
2018-10-03T03:00:03.535Z,5.20
2018-10-03T03:02:31.648Z,4.73
2018-10-03T03:04:59.734Z,4.33
2018-10-03T03:07:27.831Z,4.10
2018-10-03T03:09:55.994Z,4.17
2018-10-03T03:12:24.089Z,3.50
2018-10-03T03:14:52.287Z,4.00
2018-10-03T03:17:20.404Z,4.23
2018-10-03T03:19:48.491Z,4.40
2018-10-03T03:22:16.659Z,4.33
2018-10-03T03:24:44.759Z,3.87
2018-10-03T03:27:12.890Z,4.47
2018-10-03T03:29:40.989Z,4.13
2018-10-03T03:32:09.129Z,5.50
2018-10-03T03:34:37.274Z,4.87
2018-10-03T03:37:05.391Z,4.20
2018-10-03T03:39:33.480Z,4.37
2018-10-03T03:42:01.590Z,4.63
2018-10-03T03:44:29.708Z,4.00
2018-10-03T03:46:57.813Z,4.57
2018-10-03T03:49:25.942Z,3.80
2018-10-03T03:51:54.037Z,4.03
2018-10-03T03:54:22.187Z,4.30
2018-10-03T03:56:50.307Z,4.53
2018-10-03T03:59:18.440Z,5.20
2018-10-03T04:01:46.534Z,3.70
2018-10-03T04:04:14.691Z,5.37
2018-10-03T04:06:42.768Z,3.37
2018-10-03T04:09:10.943Z,4.83
2018-10-03T04:11:39.053Z,4.53
2018-10-03T04:14:07.175Z,3.70
2018-10-03T04:16:35.265Z,4.57
2018-10-03T04:19:03.390Z,4.10
2018-10-03T04:21:38.903Z,4.20
2018-10-03T04:24:08.503Z,5.23
2018-10-03T04:26:36.881Z,4.93
2018-10-03T04:29:05.359Z,4.83
2018-10-03T04:31:34.243Z,5.83
2018-10-03T04:34:02.664Z,4.47
2018-10-03T04:36:30.892Z,4.20
2018-10-03T04:38:59.003Z,4.87
2018-10-03T04:41:27.118Z,4.77
2018-10-03T04:43:55.295Z,4.53
2018-10-03T04:46:23.412Z,5.17
2018-10-03T04:48:51.528Z,4.10
2018-10-03T04:51:19.672Z,4.23
2018-10-03T04:53:47.835Z,4.93
2018-10-03T04:56:15.986Z,4.43
2018-10-03T04:58:44.077Z,4.27
2018-10-03T05:01:12.417Z,4.60
2018-10-03T05:03:40.509Z,4.83
2018-10-03T05:06:08.883Z,4.47
2018-10-03T05:08:37.348Z,5.53
2018-10-03T05:11:05.514Z,4.83
2018-10-03T05:13:33.615Z,4.43
2018-10-03T05:16:01.735Z,4.40
2018-10-03T05:18:29.853Z,4.60
2018-10-03T05:20:57.957Z,4.23
2018-10-03T05:23:26.026Z,4.73
2018-10-03T05:25:54.154Z,4.77
2018-10-03T05:28:22.238Z,4.60
2018-10-03T05:30:50.494Z,4.60
2018-10-03T05:33:18.697Z,4.20
2018-10-03T05:35:46.735Z,4.03
2018-10-03T05:38:14.834Z,4.43
2018-10-03T05:40:42.932Z,4.13
2018-10-03T05:43:11.109Z,4.03
2018-10-03T05:45:39.235Z,3.63
2018-10-03T05:48:07.335Z,3.87
2018-10-03T05:50:35.419Z,4.63
2018-10-03T05:53:03.550Z,4.20
2018-10-03T05:55:31.691Z,5.27
2018-10-03T05:57:59.803Z,4.27
2018-10-03T06:00:27.900Z,3.97
2018-10-03T06:02:56.083Z,4.70
2018-10-03T06:05:24.137Z,4.20
2018-10-03T06:07:52.344Z,5.03
2018-10-03T06:10:20.462Z,4.70
2018-10-03T06:12:48.564Z,4.80
2018-10-03T06:15:16.667Z,4.60
2018-10-03T06:17:44.784Z,4.63
2018-10-03T06:20:12.878Z,4.17
2018-10-03T06:22:40.990Z,4.53
2018-10-03T06:25:09.112Z,5.47
2018-10-03T06:27:37.229Z,4.27
2018-10-03T06:30:05.350Z,5.27
2018-10-03T06:32:33.471Z,4.13
2018-10-03T06:35:01.645Z,4.10
2018-10-03T06:37:29.761Z,4.17
2018-10-03T06:39:57.887Z,4.33
2018-10-03T06:42:26.027Z,3.97
2018-10-03T06:44:54.147Z,4.40
2018-10-03T06:47:22.248Z,4.63
2018-10-03T06:49:50.346Z,4.33
2018-10-03T06:52:18.511Z,4.07
2018-10-03T06:54:46.599Z,4.93
2018-10-03T06:57:14.682Z,3.70
2018-10-03T06:59:42.792Z,4.43
2018-10-03T07:02:10.894Z,4.80
2018-10-03T07:04:39.022Z,4.20
2018-10-03T07:07:07.158Z,3.93
2018-10-03T07:09:35.272Z,3.40
2018-10-03T07:12:03.367Z,4.13
2018-10-03T07:14:31.458Z,3.57
2018-10-03T07:16:59.568Z,4.00
2018-10-03T07:19:27.717Z,4.07
2018-10-03T07:21:55.820Z,3.80
2018-10-03T07:24:23.923Z,4.33
2018-10-03T07:26:52.154Z,4.17
2018-10-03T07:29:20.296Z,4.10
2018-10-03T07:31:48.408Z,4.73
2018-10-03T07:34:16.557Z,4.50
2018-10-03T07:36:44.638Z,4.17
2018-10-03T07:39:12.795Z,3.90
2018-10-03T07:41:40.915Z,4.50
2018-10-03T07:44:09.103Z,3.93
2018-10-03T07:46:37.202Z,3.40
2018-10-03T07:49:05.407Z,4.30
2018-10-03T07:51:33.575Z,3.83
2018-10-03T07:54:01.732Z,3.97
2018-10-03T07:56:29.954Z,3.63
2018-10-03T07:58:58.142Z,3.77
2018-10-03T08:01:26.187Z,4.50
2018-10-03T08:03:54.307Z,4.67
2018-10-03T08:06:22.423Z,3.77
2018-10-03T08:08:50.559Z,4.37
2018-10-03T08:11:18.667Z,3.53
2018-10-03T08:13:46.750Z,3.70
2018-10-03T08:16:14.840Z,3.40
2018-10-03T08:18:42.963Z,4.47
2018-10-03T08:21:11.064Z,3.77
2018-10-03T08:23:39.210Z,3.13
2018-10-03T08:26:07.419Z,3.27
2018-10-03T08:28:35.563Z,3.90
2018-10-03T08:31:03.675Z,3.13
2018-10-03T08:33:31.821Z,3.43
2018-10-03T08:35:59.987Z,4.03
2018-10-03T08:38:28.095Z,3.93
2018-10-03T08:40:56.215Z,3.60
2018-10-03T08:43:24.318Z,3.47
2018-10-03T08:45:52.410Z,3.50
2018-10-03T08:48:20.517Z,4.17
2018-10-03T08:50:48.654Z,4.37
2018-10-03T08:53:16.809Z,3.80
2018-10-03T08:55:44.967Z,4.53
2018-10-03T08:58:13.094Z,3.90
2018-10-03T09:00:41.222Z,3.83
2018-10-03T09:03:09.432Z,4.00
2018-10-03T09:05:37.588Z,3.90
2018-10-03T09:08:12.796Z,4.23
2018-10-03T09:10:42.414Z,3.53
2018-10-03T09:13:11.182Z,3.90
2018-10-03T09:15:39.500Z,3.70
2018-10-03T09:18:07.635Z,4.53
2018-10-03T09:20:36.031Z,3.97
2018-10-03T09:23:04.144Z,3.67
2018-10-03T09:25:32.270Z,3.60
2018-10-03T09:28:00.542Z,4.17
2018-10-03T09:30:28.631Z,3.53
2018-10-03T09:32:56.830Z,3.93
2018-10-03T09:35:24.940Z,3.80
2018-10-03T09:37:53.042Z,3.23
2018-10-03T09:40:21.175Z,3.67
2018-10-03T09:42:49.388Z,4.17
2018-10-03T09:45:17.491Z,3.10
2018-10-03T09:47:45.593Z,3.90
2018-10-03T09:50:13.700Z,3.53
2018-10-03T09:52:42.106Z,3.80
2018-10-03T09:55:10.248Z,3.73
2018-10-03T09:57:38.347Z,3.40
2018-10-03T10:00:07.258Z,4.40
2018-10-03T10:02:35.790Z,3.63
2018-10-03T10:05:03.987Z,3.63
2018-10-03T10:07:32.147Z,3.83
2018-10-03T10:10:00.248Z,3.97
2018-10-03T10:12:28.387Z,3.60
2018-10-03T10:14:56.492Z,4.10
2018-10-03T10:17:24.632Z,3.90
2018-10-03T10:19:52.715Z,3.63
2018-10-03T10:22:21.520Z,3.53
2018-10-03T10:24:49.695Z,3.57
2018-10-03T10:27:17.854Z,3.40
2018-10-03T10:29:46.089Z,3.30
2018-10-03T10:32:14.247Z,3.87
2018-10-03T10:34:42.366Z,3.57
2018-10-03T10:37:10.491Z,3.80
2018-10-03T10:39:38.615Z,3.20
2018-10-03T10:42:06.707Z,3.90
2018-10-03T10:44:34.864Z,3.60
2018-10-03T10:47:02.954Z,2.60
2018-10-03T10:49:31.104Z,3.83
2018-10-03T10:51:59.318Z,3.27
2018-10-03T10:54:27.467Z,3.20
2018-10-03T10:56:55.628Z,3.80
2018-10-03T10:59:23.820Z,3.40
2018-10-03T11:01:52.014Z,3.53
2018-10-03T11:04:20.329Z,3.20
2018-10-03T11:06:48.596Z,3.27
2018-10-03T11:09:16.718Z,2.63
2018-10-03T11:11:44.807Z,3.43
2018-10-03T11:14:12.978Z,3.60
2018-10-03T11:16:41.140Z,3.73
2018-10-03T11:19:09.308Z,3.50
2018-10-03T11:21:37.406Z,2.70
2018-10-03T11:24:05.709Z,3.37
2018-10-03T11:26:34.123Z,3.23
2018-10-03T11:29:02.232Z,4.37
2018-10-03T11:31:30.356Z,4.10
2018-10-03T11:33:58.638Z,3.03
2018-10-03T11:36:26.759Z,3.60
2018-10-03T11:38:54.890Z,3.30
2018-10-03T11:41:23.021Z,4.07
2018-10-03T11:43:51.160Z,3.10
2018-10-03T11:46:19.282Z,3.40
2018-10-03T11:48:47.391Z,3.77
2018-10-03T11:51:15.485Z,3.30
2018-10-03T11:53:43.634Z,3.80
2018-10-03T11:56:11.726Z,3.40
2018-10-03T11:58:39.883Z,3.97
2018-10-03T12:01:08.053Z,3.30
2018-10-03T12:03:36.359Z,3.33
2018-10-03T12:06:04.436Z,4.40
2018-10-03T12:08:32.528Z,3.40
2018-10-03T12:11:00.855Z,3.03
2018-10-03T12:13:28.975Z,3.53
2018-10-03T12:15:57.154Z,3.33
2018-10-03T12:18:25.378Z,3.17
2018-10-03T12:20:53.470Z,3.93
2018-10-03T12:23:21.636Z,4.23
2018-10-03T12:25:49.791Z,3.23
2018-10-03T12:28:17.892Z,3.83
2018-10-03T12:30:46.048Z,2.80
2018-10-03T12:33:14.195Z,3.33
2018-10-03T12:35:42.480Z,3.07
2018-10-03T12:38:10.681Z,3.97
2018-10-03T12:40:38.846Z,3.20
2018-10-03T12:43:07.040Z,2.73
2018-10-03T12:45:35.211Z,3.87
2018-10-03T12:48:03.358Z,3.33
2018-10-03T12:50:31.454Z,3.03
2018-10-03T12:52:59.556Z,2.83
2018-10-03T12:55:27.653Z,3.60
2018-10-03T12:57:55.759Z,2.93
2018-10-03T13:00:28.243Z,3.07
2018-10-03T13:02:56.347Z,3.00
2018-10-03T13:05:24.474Z,3.40
2018-10-03T13:07:52.693Z,3.43
2018-10-03T13:10:20.851Z,2.90
2018-10-03T13:12:49.026Z,3.10
2018-10-03T13:15:17.374Z,3.17
2018-10-03T13:17:45.488Z,3.40
2018-10-03T13:20:13.590Z,3.70
2018-10-03T13:22:41.724Z,3.03
2018-10-03T13:25:09.859Z,3.37
2018-10-03T13:27:37.969Z,3.67
2018-10-03T13:30:06.098Z,3.30
2018-10-03T13:32:34.214Z,3.07
2018-10-03T13:35:02.406Z,4.07
2018-10-03T13:37:30.569Z,3.27
2018-10-03T13:39:58.720Z,3.93
2018-10-03T13:42:26.834Z,3.57
2018-10-03T13:44:54.948Z,3.97
2018-10-03T13:47:23.154Z,3.40
2018-10-03T13:49:51.454Z,3.50
2018-10-03T13:52:19.647Z,3.77
2018-10-03T13:54:47.796Z,4.10
2018-10-03T13:57:15.966Z,3.20
2018-10-03T13:59:44.063Z,3.30
2018-10-03T14:02:12.190Z,3.47
2018-10-03T14:04:40.424Z,4.00
2018-10-03T14:07:08.521Z,3.73
2018-10-03T14:09:36.736Z,3.53
2018-10-03T14:12:04.883Z,3.43
2018-10-03T14:14:33.069Z,3.67
2018-10-03T14:17:01.289Z,3.17
2018-10-03T14:19:29.420Z,4.03
2018-10-03T14:21:57.567Z,3.13
2018-10-03T14:24:25.736Z,3.63
2018-10-03T14:26:53.847Z,3.87
2018-10-03T14:29:22.040Z,3.33
2018-10-03T14:31:50.186Z,3.93
2018-10-03T14:34:18.336Z,3.00
2018-10-03T14:36:46.672Z,3.63
2018-10-03T14:39:15.064Z,3.50
2018-10-03T14:41:43.174Z,3.47
2018-10-03T14:44:11.287Z,3.63
2018-10-03T14:46:39.488Z,3.33
2018-10-03T14:49:07.610Z,3.83
2018-10-03T14:51:35.702Z,3.07
2018-10-03T14:54:03.878Z,4.43
2018-10-03T14:56:32.022Z,3.37
2018-10-03T14:59:00.122Z,2.80
2018-10-03T15:01:28.250Z,3.40
2018-10-03T15:03:56.340Z,3.03
2018-10-03T15:06:24.451Z,4.37
2018-10-03T15:08:52.615Z,3.50
2018-10-03T15:11:20.753Z,3.10
2018-10-03T15:13:48.869Z,3.30
2018-10-03T15:16:17.018Z,3.50
2018-10-03T15:18:45.224Z,3.43
2018-10-03T15:21:13.373Z,4.00
2018-10-03T15:23:41.482Z,3.57
2018-10-03T15:26:09.599Z,3.20
2018-10-03T15:28:37.827Z,3.40
2018-10-03T15:31:05.942Z,3.67
2018-10-03T15:33:34.032Z,3.53
2018-10-03T15:36:02.335Z,2.83
2018-10-03T15:38:30.475Z,3.57
2018-10-03T15:40:58.653Z,3.63
2018-10-03T15:43:26.772Z,3.60
2018-10-03T15:45:54.882Z,3.30
2018-10-03T15:48:23.107Z,3.73
2018-10-03T15:50:51.146Z,3.40
2018-10-03T15:53:19.271Z,2.83
2018-10-03T15:55:47.392Z,3.30
2018-10-03T15:58:15.509Z,3.27
2018-10-03T16:00:43.624Z,3.37
2018-10-03T16:03:11.840Z,2.70
2018-10-03T16:05:39.947Z,3.30
2018-10-03T16:08:08.066Z,3.53
2018-10-03T16:10:36.214Z,3.07
2018-10-03T16:13:04.319Z,3.07
2018-10-03T16:15:32.460Z,3.20
2018-10-03T16:18:00.593Z,3.33
2018-10-03T16:20:28.679Z,3.50
2018-10-03T16:22:56.815Z,3.07
2018-10-03T16:25:24.968Z,3.27
2018-10-03T16:27:53.088Z,3.83
2018-10-03T16:30:21.202Z,3.00
2018-10-03T16:32:49.324Z,3.03
2018-10-03T16:35:17.455Z,3.00
2018-10-03T16:37:45.555Z,2.90
2018-10-03T16:40:13.698Z,2.97
2018-10-03T16:42:41.864Z,3.60
2018-10-03T16:45:10.081Z,2.80
2018-10-03T16:47:38.212Z,3.20
2018-10-03T16:50:06.376Z,3.37
2018-10-03T16:52:34.452Z,3.37
2018-10-03T16:55:02.629Z,3.20
2018-10-03T16:57:30.783Z,2.83
2018-10-03T16:59:58.892Z,2.77
2018-10-03T17:02:27.009Z,3.47
2018-10-03T17:04:55.532Z,3.77
2018-10-03T17:07:23.639Z,3.00
2018-10-03T17:09:51.735Z,3.13
2018-10-03T17:12:19.847Z,3.63
2018-10-03T17:14:47.990Z,3.30
2018-10-03T17:17:16.100Z,3.50
2018-10-03T17:19:44.275Z,3.40
2018-10-03T17:22:12.450Z,3.33
2018-10-03T17:24:40.628Z,3.70
2018-10-03T17:27:08.788Z,3.70
2018-10-03T17:29:36.919Z,4.40
2018-10-03T17:32:05.056Z,3.33
2018-10-03T17:34:33.241Z,3.20
2018-10-03T17:37:01.431Z,3.50
2018-10-03T17:39:29.687Z,3.80
2018-10-03T17:41:58.065Z,3.17
2018-10-03T17:44:26.413Z,3.70
2018-10-03T17:46:56.144Z,3.20
2018-10-03T17:49:24.240Z,3.20
2018-10-03T17:51:52.353Z,4.57
2018-10-03T17:54:20.471Z,3.90
2018-10-03T17:56:48.630Z,3.60
2018-10-03T17:59:16.727Z,3.80
2018-10-03T18:01:47.068Z,4.33
2018-10-03T18:04:15.304Z,3.77
2018-10-03T18:06:43.467Z,3.77
2018-10-03T18:09:12.279Z,3.43
2018-10-03T18:11:40.479Z,4.10
2018-10-03T18:14:08.826Z,3.97
2018-10-03T18:16:36.960Z,4.37
2018-10-03T18:19:05.139Z,4.13
2018-10-03T18:21:33.768Z,4.20
2018-10-03T18:24:02.096Z,4.73
2018-10-03T18:26:30.232Z,3.73
2018-10-03T18:28:58.440Z,3.67
2018-10-03T18:31:26.753Z,4.07
2018-10-03T18:33:55.007Z,3.87
2018-10-03T18:36:23.550Z,4.57
2018-10-03T18:38:52.417Z,4.30
2018-10-03T18:41:21.632Z,4.20
2018-10-03T18:43:50.222Z,4.40
2018-10-03T18:46:18.716Z,4.17
2018-10-03T18:48:47.189Z,4.60
2018-10-03T18:51:15.770Z,4.57
2018-10-03T18:53:44.556Z,4.60
2018-10-03T18:56:13.141Z,5.30
2018-10-03T18:58:41.733Z,4.43
2018-10-03T19:01:10.207Z,4.10
2018-10-03T19:03:39.208Z,4.30
2018-10-03T19:06:08.128Z,4.20
2018-10-03T19:08:36.885Z,4.27
2018-10-03T19:11:05.776Z,4.50
2018-10-03T19:13:35.382Z,4.37
2018-10-03T19:16:04.266Z,5.03
2018-10-03T19:18:32.749Z,5.43
2018-10-03T19:21:01.232Z,4.57
2018-10-03T19:23:29.819Z,4.60
2018-10-03T19:25:58.915Z,4.87
2018-10-03T19:28:28.003Z,3.93
2018-10-03T19:30:56.488Z,4.37
2018-10-03T19:33:25.481Z,4.13
2018-10-03T19:35:54.166Z,5.30
2018-10-03T19:38:22.649Z,6.17
2018-10-03T19:40:50.946Z,5.33
2018-10-03T19:43:20.941Z,5.20
2018-10-03T19:45:49.139Z,4.50
2018-10-03T19:48:17.541Z,5.00
2018-10-03T19:50:45.560Z,4.83
2018-10-03T19:53:15.843Z,4.17
2018-10-03T19:55:44.168Z,4.63
2018-10-03T19:58:12.366Z,4.73
2018-10-03T20:00:40.491Z,4.90
2018-10-03T20:03:08.665Z,5.60
2018-10-03T20:05:37.083Z,4.77
2018-10-03T20:08:05.212Z,4.40
2018-10-03T20:10:33.616Z,5.27
2018-10-03T20:13:02.062Z,4.27
2018-10-03T20:15:31.200Z,5.30
2018-10-03T20:17:59.341Z,4.60
2018-10-03T20:20:27.699Z,4.63
2018-10-03T20:22:55.858Z,4.80
2018-10-03T20:25:23.959Z,4.90
2018-10-03T20:27:52.410Z,5.30
2018-10-03T20:30:21.056Z,5.37
2018-10-03T20:32:49.216Z,5.17
2018-10-03T20:35:17.449Z,5.40
2018-10-03T20:37:45.611Z,4.87
2018-10-03T20:40:13.776Z,4.83
2018-10-03T20:42:42.591Z,4.67
2018-10-03T20:45:10.719Z,5.40
2018-10-03T20:47:38.837Z,5.37
2018-10-03T20:50:07.019Z,5.50
2018-10-03T20:52:35.215Z,6.47
2018-10-03T20:55:03.331Z,5.87
2018-10-03T20:57:31.463Z,6.03
2018-10-03T20:59:59.740Z,5.43
2018-10-03T21:02:27.919Z,6.00
2018-10-03T21:04:56.275Z,6.57
2018-10-03T21:07:24.574Z,5.77
2018-10-03T21:09:52.685Z,5.73
2018-10-03T21:12:20.915Z,6.03
2018-10-03T21:14:49.091Z,5.83
2018-10-03T21:17:17.207Z,5.77
2018-10-03T21:19:45.303Z,5.60
2018-10-03T21:22:13.444Z,6.23
2018-10-03T21:24:41.587Z,5.60
2018-10-03T21:27:09.788Z,5.40
2018-10-03T21:29:38.272Z,5.50
2018-10-03T21:32:06.596Z,6.20
2018-10-03T21:34:34.696Z,7.10
2018-10-03T21:37:02.847Z,5.97
2018-10-03T21:39:31.466Z,6.77
2018-10-03T21:41:59.573Z,6.13
2018-10-03T21:44:27.768Z,5.33
2018-10-03T21:46:55.887Z,6.60
2018-10-03T21:49:24.207Z,6.07
2018-10-03T21:51:52.303Z,6.33
2018-10-03T21:54:20.428Z,6.17
2018-10-03T21:56:48.569Z,6.00
2018-10-03T21:59:16.703Z,6.33
2018-10-03T22:01:44.831Z,6.70
2018-10-03T22:04:12.923Z,6.63
2018-10-03T22:06:41.054Z,7.60
2018-10-03T22:09:09.495Z,6.57
2018-10-03T22:11:37.738Z,6.40
2018-10-03T22:14:05.839Z,7.00
2018-10-03T22:16:34.026Z,6.27
2018-10-03T22:19:02.140Z,7.13
2018-10-03T22:21:30.298Z,6.37
2018-10-03T22:23:58.436Z,6.47
2018-10-03T22:26:26.588Z,6.23
2018-10-03T22:28:54.688Z,6.97
2018-10-03T22:31:23.039Z,6.47
2018-10-03T22:33:51.165Z,6.53
2018-10-03T22:36:19.428Z,6.47
2018-10-03T22:38:47.576Z,6.67
2018-10-03T22:41:15.756Z,6.87
2018-10-03T22:43:43.878Z,6.67
2018-10-03T22:46:11.970Z,7.57
2018-10-03T22:48:40.102Z,6.80
2018-10-03T22:51:08.204Z,6.70
2018-10-03T22:53:36.405Z,7.07
2018-10-03T22:56:04.507Z,5.63
2018-10-03T22:58:32.667Z,6.57
2018-10-03T23:01:00.839Z,7.20
2018-10-03T23:03:28.935Z,7.13
2018-10-03T23:05:57.138Z,6.23
2018-10-03T23:08:25.239Z,6.83
2018-10-03T23:10:53.334Z,6.67
2018-10-03T23:13:21.522Z,6.23
2018-10-03T23:15:49.629Z,6.90
2018-10-03T23:18:17.743Z,7.00
2018-10-03T23:20:45.928Z,7.53
2018-10-03T23:23:14.024Z,6.90
2018-10-03T23:25:42.174Z,6.70
2018-10-03T23:28:10.290Z,7.37
2018-10-03T23:30:38.497Z,7.10
2018-10-03T23:33:06.724Z,7.93
2018-10-03T23:35:34.862Z,6.80
2018-10-03T23:38:02.959Z,6.60
2018-10-03T23:40:31.063Z,7.03
2018-10-03T23:42:59.179Z,6.33
2018-10-03T23:45:27.281Z,6.97
2018-10-03T23:47:55.427Z,6.73
2018-10-03T23:50:23.593Z,7.47
2018-10-03T23:52:51.917Z,7.73
2018-10-03T23:55:20.031Z,7.10
2018-10-03T23:57:48.223Z,7.17
